地図

経路データ

SID SEASON NUMBER BASIN SUBBASIN NAME ISO_TIME NATURE LAT LON WMO_WIND WMO_PRES WMO_AGENCY TRACK_TYPE DIST2LAND LANDFALL IFLAG USA_AGENCY USA_ATCF_ID USA_LAT USA_LON USA_RECORD USA_STATUS USA_WIND USA_PRES USA_SSHS USA_R34_NE USA_R34_SE USA_R34_SW USA_R34_NW USA_R50_NE USA_R50_SE USA_R50_SW USA_R50_NW USA_R64_NE USA_R64_SE USA_R64_SW USA_R64_NW USA_POCI USA_ROCI USA_RMW USA_EYE TOKYO_LAT TOKYO_LON TOKYO_GRADE TOKYO_WIND TOKYO_PRES TOKYO_R50_DIR TOKYO_R50_LONG TOKYO_R50_SHORT TOKYO_R30_DIR TOKYO_R30_LONG TOKYO_R30_SHORT TOKYO_LAND CMA_LAT CMA_LON CMA_CAT CMA_WIND CMA_PRES HKO_LAT HKO_LON HKO_CAT HKO_WIND HKO_PRES NEWDELHI_LAT NEWDELHI_LON NEWDELHI_GRADE NEWDELHI_WIND NEWDELHI_PRES NEWDELHI_CI NEWDELHI_DP NEWDELHI_POCI REUNION_LAT REUNION_LON REUNION_TYPE REUNION_WIND REUNION_PRES REUNION_TNUM REUNION_CI REUNION_RMW REUNION_R34_NE REUNION_R34_SE REUNION_R34_SW REUNION_R34_NW REUNION_R50_NE REUNION_R50_SE REUNION_R50_SW REUNION_R50_NW REUNION_R64_NE REUNION_R64_SE REUNION_R64_SW REUNION_R64_NW BOM_LAT BOM_LON BOM_TYPE BOM_WIND BOM_PRES BOM_TNUM BOM_CI BOM_RMW BOM_R34_NE BOM_R34_SE BOM_R34_SW BOM_R34_NW BOM_R50_NE BOM_R50_SE BOM_R50_SW BOM_R50_NW BOM_R64_NE BOM_R64_SE BOM_R64_SW BOM_R64_NW BOM_ROCI BOM_POCI BOM_EYE BOM_POS_METHOD BOM_PRES_METHOD NADI_LAT NADI_LON NADI_CAT NADI_WIND NADI_PRES WELLINGTON_LAT WELLINGTON_LON WELLINGTON_WIND WELLINGTON_PRES DS824_LAT DS824_LON DS824_STAGE DS824_WIND DS824_PRES TD9636_LAT TD9636_LON TD9636_STAGE TD9636_WIND TD9636_PRES TD9635_LAT TD9635_LON TD9635_WIND TD9635_PRES TD9635_ROCI NEUMANN_LAT NEUMANN_LON NEUMANN_CLASS NEUMANN_WIND NEUMANN_PRES MLC_LAT MLC_LON MLC_CLASS MLC_WIND MLC_PRES USA_GUST BOM_GUST BOM_GUST_PER REUNION_GUST REUNION_GUST_PER USA_SEAHGT USA_SEARAD_NE USA_SEARAD_SE USA_SEARAD_SW USA_SEARAD_NW STORM_SPEED STORM_DIR
1979248N16339 1979 84 NA NA GLORIA 1979-09-04 12:00:00 TS 15.5000 -21.0000 25 1005 hurdat_atl main 386 386 O_____________ hurdat_atl AL141979 15.5000 -21.0000 TD 25 1005 -1 18 305
1979248N16339 1979 84 NA NA GLORIA 1979-09-04 15:00:00 TS 16.0005 -21.7493 main 473 473 P_____________ AL141979 16.0005 -21.7493 TD 25 1004 -1 18 305
1979248N16339 1979 84 NA NA GLORIA 1979-09-04 18:00:00 TS 16.5000 -22.5000 25 1004 hurdat_atl main 572 572 O_____________ hurdat_atl AL141979 16.5000 -22.5000 TD 25 1004 -1 18 305
1979248N16339 1979 84 NA NA GLORIA 1979-09-04 21:00:00 TS 16.9997 -23.2504 main 671 671 P_____________ AL141979 16.9997 -23.2504 TD 25 1003 -1 18 305
1979248N16339 1979 84 NA NA GLORIA 1979-09-05 00:00:00 TS 17.5000 -24.0000 25 1003 hurdat_atl main 761 761 O_____________ hurdat_atl AL141979 17.5000 -24.0000 TD 25 1003 -1 18 306
1979248N16339 1979 84 NA NA GLORIA 1979-09-05 03:00:00 TS 18.0372 -24.7499 main 852 852 P_____________ AL141979 18.0372 -24.7499 TD 25 1002 -1 17 305
1979248N16339 1979 84 NA NA GLORIA 1979-09-05 06:00:00 TS 18.5000 -25.5000 25 1002 hurdat_atl main 916 916 O_____________ hurdat_atl AL141979 18.5000 -25.5000 TD 25 1002 -1 16 297
1979248N16339 1979 84 NA NA GLORIA 1979-09-05 09:00:00 TS 18.7644 -26.2287 main 977 977 P_____________ AL141979 18.7644 -26.2287 TD 27 1002 -1 15 289
1979248N16339 1979 84 NA NA GLORIA 1979-09-05 12:00:00 TS 19.0000 -27.0000 30 1002 hurdat_atl main 1054 1054 O_____________ hurdat_atl AL141979 19.0000 -27.0000 TD 30 1002 -1 17 291
1979248N16339 1979 84 NA NA GLORIA 1979-09-05 15:00:00 TS 19.3852 -27.8997 main 1138 1138 P_____________ AL141979 19.3852 -27.8997 TD 30 1002 -1 19 295
1979248N16339 1979 84 NA NA GLORIA 1979-09-05 18:00:00 TS 19.8000 -28.8000 30 1002 hurdat_atl main 1224 1224 O_____________ hurdat_atl AL141979 19.8000 -28.8000 TD 30 1002 -1 17 296
1979248N16339 1979 84 NA NA GLORIA 1979-09-05 21:00:00 TS 20.1567 -29.5582 main 1303 1303 P_____________ AL141979 20.1567 -29.5582 TD 30 1001 -1 16 296
1979248N16339 1979 84 NA NA GLORIA 1979-09-06 00:00:00 TS 20.5000 -30.3000 30 1001 hurdat_atl main 1373 1373 O_____________ hurdat_atl AL141979 20.5000 -30.3000 TD 30 1001 -1 16 295
1979248N16339 1979 84 NA NA GLORIA 1979-09-06 03:00:00 TS 20.8422 -31.1280 main 1454 1454 P_____________ AL141979 20.8422 -31.1280 TD 30 1001 -1 17 294
1979248N16339 1979 84 NA NA GLORIA 1979-09-06 06:00:00 TS 21.2000 -32.0000 30 1001 hurdat_atl main 1546 1546 O_____________ hurdat_atl AL141979 21.2000 -32.0000 TD 30 1001 -1 18 295
1979248N16339 1979 84 NA NA GLORIA 1979-09-06 09:00:00 TS 21.6148 -32.8998 main 1639 1639 P_____________ AL141979 21.6148 -32.8998 TD 32 1000 -1 19 296
1979248N16339 1979 84 NA NA GLORIA 1979-09-06 12:00:00 TS 22.0000 -33.8000 35 1000 hurdat_atl main 1732 1732 O_____________ hurdat_atl AL141979 22.0000 -33.8000 TS 35 1000 0 18 291
1979248N16339 1979 84 NA NA GLORIA 1979-09-06 15:00:00 TS 22.2574 -34.6883 main 1823 1823 P_____________ AL141979 22.2574 -34.6883 TS 40 999 0 17 288
1979248N16339 1979 84 NA NA GLORIA 1979-09-06 18:00:00 TS 22.5000 -35.5000 45 998 hurdat_atl main 1905 1905 O_____________ hurdat_atl AL141979 22.5000 -35.5000 TS 45 998 0 15 291
1979248N16339 1979 84 NA NA GLORIA 1979-09-06 21:00:00 TS 22.7974 -36.2475 main 1976 1976 P_____________ AL141979 22.7974 -36.2475 TS 50 996 0 14 300
1979248N16339 1979 84 NA NA GLORIA 1979-09-07 00:00:00 TS 23.2000 -36.8000 55 995 hurdat_atl main 2037 2037 O_____________ hurdat_atl AL141979 23.2000 -36.8000 TS 55 995 0 12 323
1979248N16339 1979 84 NA NA GLORIA 1979-09-07 03:00:00 TS 23.7619 -37.0386 main 2059 2059 P_____________ AL141979 23.7619 -37.0386 TS 60 993 0 13 343
1979248N16339 1979 84 NA NA GLORIA 1979-09-07 06:00:00 TS 24.4000 -37.2000 65 992 hurdat_atl main 2072 2069 O_____________ hurdat_atl AL141979 24.4000 -37.2000 HU 65 992 1 14 339
1979248N16339 1979 84 NA NA GLORIA 1979-09-07 09:00:00 TS 25.0301 -37.5771 main 2094 2091 P_____________ AL141979 25.0301 -37.5771 HU 65 991 1 14 329
1979248N16339 1979 84 NA NA GLORIA 1979-09-07 12:00:00 TS 25.6000 -38.0000 65 990 hurdat_atl main 2117 2115 O_____________ hurdat_atl AL141979 25.6000 -38.0000 HU 65 990 1 12 325
1979248N16339 1979 84 NA NA GLORIA 1979-09-07 15:00:00 TS 26.0449 -38.3728 main 2147 2144 P_____________ AL141979 26.0449 -38.3728 HU 67 989 1 10 322
1979248N16339 1979 84 NA NA GLORIA 1979-09-07 18:00:00 TS 26.4000 -38.7000 70 988 hurdat_atl main 2168 2166 O_____________ hurdat_atl AL141979 26.4000 -38.7000 HU 70 988 1 9 323
1979248N16339 1979 84 NA NA GLORIA 1979-09-07 21:00:00 TS 26.7222 -38.9430 main 2181 2181 P_____________ AL141979 26.7222 -38.9430 HU 72 986 1 8 323
1979248N16339 1979 84 NA NA GLORIA 1979-09-08 00:00:00 TS 27.0000 -39.2000 75 985 hurdat_atl main 2205 2205 O_____________ hurdat_atl AL141979 27.0000 -39.2000 HU 75 985 1 8 312
1979248N16339 1979 84 NA NA GLORIA 1979-09-08 03:00:00 TS 27.2578 -39.6148 main 2239 2239 P_____________ AL141979 27.2578 -39.6148 HU 75 985 1 9 305
1979248N16339 1979 84 NA NA GLORIA 1979-09-08 06:00:00 TS 27.5000 -40.0000 75 985 hurdat_atl main 2275 2275 O_____________ hurdat_atl AL141979 27.5000 -40.0000 HU 75 985 1 7 315
1979248N16339 1979 84 NA NA GLORIA 1979-09-08 09:00:00 TS 27.7422 -40.1581 main 2292 2289 P_____________ AL141979 27.7422 -40.1581 HU 75 985 1 6 332
1979248N16339 1979 84 NA NA GLORIA 1979-09-08 12:00:00 TS 28.0000 -40.3000 75 985 hurdat_atl main 2297 2297 O_____________ hurdat_atl AL141979 28.0000 -40.3000 HU 75 985 1 7 323
1979248N16339 1979 84 NA NA GLORIA 1979-09-08 15:00:00 TS 28.2851 -40.6200 main 2313 2266 P_____________ AL141979 28.2851 -40.6200 HU 75 985 1 9 314
1979248N16339 1979 84 NA NA GLORIA 1979-09-08 18:00:00 TS 28.6000 -41.0000 75 985 hurdat_atl main 2266 2224 O_____________ hurdat_atl AL141979 28.6000 -41.0000 HU 75 985 1 9 316
1979248N16339 1979 84 NA NA GLORIA 1979-09-08 21:00:00 TS 28.9498 -41.3427 main 2224 2167 P_____________ AL141979 28.9498 -41.3427 HU 75 985 1 9 319
1979248N16339 1979 84 NA NA GLORIA 1979-09-09 00:00:00 TS 29.3000 -41.7000 75 985 hurdat_atl main 2167 2121 O_____________ hurdat_atl AL141979 29.3000 -41.7000 HU 75 985 1 9 315
1979248N16339 1979 84 NA NA GLORIA 1979-09-09 03:00:00 TS 29.6150 -42.1001 main 2121 2075 P_____________ AL141979 29.6150 -42.1001 HU 75 985 1 9 311
1979248N16339 1979 84 NA NA GLORIA 1979-09-09 06:00:00 TS 29.9000 -42.5000 75 985 hurdat_atl main 2075 2043 O_____________ hurdat_atl AL141979 29.9000 -42.5000 HU 75 985 1 8 309
1979248N16339 1979 84 NA NA GLORIA 1979-09-09 09:00:00 TS 30.1498 -42.8505 main 2039 1997 P_____________ AL141979 30.1498 -42.8505 HU 75 985 1 8 310
1979248N16339 1979 84 NA NA GLORIA 1979-09-09 12:00:00 TS 30.4000 -43.2000 75 985 hurdat_atl main 1997 1952 O_____________ hurdat_atl AL141979 30.4000 -43.2000 HU 75 985 1 8 311
1979248N16339 1979 84 NA NA GLORIA 1979-09-09 15:00:00 TS 30.6998 -43.5776 main 1952 1906 P_____________ AL141979 30.6998 -43.5776 HU 72 986 1 9 311
1979248N16339 1979 84 NA NA GLORIA 1979-09-09 18:00:00 TS 31.0000 -44.0000 70 987 hurdat_atl main 1906 1858 O_____________ hurdat_atl AL141979 31.0000 -44.0000 HU 70 987 1 10 308
1979248N16339 1979 84 NA NA GLORIA 1979-09-09 21:00:00 TS 31.3176 -44.4993 main 1858 1820 P_____________ AL141979 31.3176 -44.4993 HU 70 988 1 10 300
1979248N16339 1979 84 NA NA GLORIA 1979-09-10 00:00:00 TS 31.5000 -45.0000 70 989 hurdat_atl main 1820 1811 O_____________ hurdat_atl AL141979 31.5000 -45.0000 HU 70 989 1 8 276
1979248N16339 1979 84 NA NA GLORIA 1979-09-10 03:00:00 TS 31.4021 -45.4007 main 1818 1815 P_____________ AL141979 31.4021 -45.4007 HU 67 990 1 7 246
1979248N16339 1979 84 NA NA GLORIA 1979-09-10 06:00:00 TS 31.2000 -45.8000 65 991 hurdat_atl main 1827 1823 O_____________ hurdat_atl AL141979 31.2000 -45.8000 HU 65 991 1 9 248
1979248N16339 1979 84 NA NA GLORIA 1979-09-10 09:00:00 TS 31.0705 -46.3452 main 1823 1820 P_____________ AL141979 31.0705 -46.3452 HU 65 992 1 9 257
1979248N16339 1979 84 NA NA GLORIA 1979-09-10 12:00:00 TS 31.0000 -46.8000 65 993 hurdat_atl main 1821 1818 O_____________ hurdat_atl AL141979 31.0000 -46.8000 HU 65 993 1 5 264
1979248N16339 1979 84 NA NA GLORIA 1979-09-10 15:00:00 TS 31.0196 -46.9449 main 1818 1805 P_____________ AL141979 31.0196 -46.9449 HU 62 993 0 2 300
1979248N16339 1979 84 NA NA GLORIA 1979-09-10 18:00:00 TS 31.1000 -47.0000 60 994 hurdat_atl main 1805 1789 O_____________ hurdat_atl AL141979 31.1000 -47.0000 TS 60 994 0 3 312
1979248N16339 1979 84 NA NA GLORIA 1979-09-10 21:00:00 TS 31.2000 -47.1774 main 1789 1773 P_____________ AL141979 31.2000 -47.1774 TS 57 994 0 4 300
1979248N16339 1979 84 NA NA GLORIA 1979-09-11 00:00:00 TS 31.3000 -47.4000 55 995 hurdat_atl main 1773 1766 O_____________ hurdat_atl AL141979 31.3000 -47.4000 TS 55 995 0 4 290
1979248N16339 1979 84 NA NA GLORIA 1979-09-11 03:00:00 TS 31.3501 -47.6651 main 1756 1751 P_____________ AL141979 31.3501 -47.6651 TS 55 995 0 4 283
1979248N16339 1979 84 NA NA GLORIA 1979-09-11 06:00:00 TS 31.4000 -47.9000 55 995 hurdat_atl main 1751 1738 O_____________ hurdat_atl AL141979 31.4000 -47.9000 TS 55 995 0 3 295
1979248N16339 1979 84 NA NA GLORIA 1979-09-11 09:00:00 TS 31.4924 -48.0151 main 1738 1725 P_____________ AL141979 31.4924 -48.0151 TS 57 994 0 3 319
1979248N16339 1979 84 NA NA GLORIA 1979-09-11 12:00:00 TS 31.6000 -48.1000 60 994 hurdat_atl main 1725 1712 O_____________ hurdat_atl AL141979 31.6000 -48.1000 TS 60 994 0 3 314
1979248N16339 1979 84 NA NA GLORIA 1979-09-11 15:00:00 TS 31.6850 -48.2500 main 1710 1697 P_____________ AL141979 31.6850 -48.2500 TS 62 993 0 3 308
1979248N16339 1979 84 NA NA GLORIA 1979-09-11 18:00:00 TS 31.8000 -48.4000 65 992 hurdat_atl main 1697 1673 O_____________ hurdat_atl AL141979 31.8000 -48.4000 HU 65 992 1 4 324
1979248N16339 1979 84 NA NA GLORIA 1979-09-11 21:00:00 TS 32.0000 -48.5224 main 1673 1649 P_____________ AL141979 32.0000 -48.5224 HU 67 990 1 4 337
1979248N16339 1979 84 NA NA GLORIA 1979-09-12 00:00:00 TS 32.2000 -48.6000 70 988 hurdat_atl main 1649 1638 O_____________ hurdat_atl AL141979 32.2000 -48.6000 HU 70 988 1 3 343
1979248N16339 1979 84 NA NA GLORIA 1979-09-12 03:00:00 TS 32.3000 -48.6375 main 1638 1628 P_____________ AL141979 32.3000 -48.6375 HU 72 986 1 2 8
1979248N16339 1979 84 NA NA GLORIA 1979-09-12 06:00:00 TS 32.4000 -48.6000 75 985 hurdat_atl main 1628 1608 O_____________ hurdat_atl AL141979 32.4000 -48.6000 HU 75 985 1 3 24
1979248N16339 1979 84 NA NA GLORIA 1979-09-12 09:00:00 TS 32.5850 -48.4875 main 1608 1590 P_____________ AL141979 32.5850 -48.4875 HU 77 982 1 5 32
1979248N16339 1979 84 NA NA GLORIA 1979-09-12 12:00:00 TS 32.8000 -48.3000 80 980 hurdat_atl main 1590 1573 O_____________ hurdat_atl AL141979 32.8000 -48.3000 HU 80 980 1 5 40
1979248N16339 1979 84 NA NA GLORIA 1979-09-12 15:00:00 TS 32.9774 -48.0870 main 1573 1557 P_____________ AL141979 32.9774 -48.0870 HU 82 977 1 6 46
1979248N16339 1979 84 NA NA GLORIA 1979-09-12 18:00:00 TS 33.2000 -47.8000 85 975 hurdat_atl main 1559 1534 O_____________ hurdat_atl AL141979 33.2000 -47.8000 HU 85 975 2 8 44
1979248N16339 1979 84 NA NA GLORIA 1979-09-12 21:00:00 TS 33.5349 -47.4376 main 1537 1503 P_____________ AL141979 33.5349 -47.4376 HU 85 975 2 10 44
1979248N16339 1979 84 NA NA GLORIA 1979-09-13 00:00:00 TS 33.9000 -47.0000 85 975 hurdat_atl main 1506 1486 O_____________ hurdat_atl AL141979 33.9000 -47.0000 HU 85 975 2 10 48
1979248N16339 1979 84 NA NA GLORIA 1979-09-13 03:00:00 TS 34.2150 -46.5148 main 1489 1471 P_____________ AL141979 34.2150 -46.5148 HU 85 975 2 10 54
1979248N16339 1979 84 NA NA GLORIA 1979-09-13 06:00:00 TS 34.5000 -46.0000 85 976 hurdat_atl main 1475 1468 O_____________ hurdat_atl AL141979 34.5000 -46.0000 HU 85 976 2 10 59
1979248N16339 1979 84 NA NA GLORIA 1979-09-13 09:00:00 TS 34.7196 -45.5136 main 1472 1456 P_____________ AL141979 34.7196 -45.5136 HU 85 976 2 10 59
1979248N16339 1979 84 NA NA GLORIA 1979-09-13 12:00:00 TS 35.0000 -45.0000 85 977 hurdat_atl main 1460 1436 O_____________ hurdat_atl AL141979 35.0000 -45.0000 HU 85 977 2 11 48
1979248N16339 1979 84 NA NA GLORIA 1979-09-13 15:00:00 TS 35.4608 -44.4961 main 1431 1413 P_____________ AL141979 35.4608 -44.4961 HU 82 977 1 14 44
1979248N16339 1979 84 NA NA GLORIA 1979-09-13 18:00:00 TS 36.0000 -43.8000 80 978 hurdat_atl main 1413 1407 O_____________ hurdat_atl AL141979 36.0000 -43.8000 HU 80 978 1 18 55
1979248N16339 1979 84 NA NA GLORIA 1979-09-13 21:00:00 TS 36.4641 -42.7089 main 1418 1418 P_____________ AL141979 36.4641 -42.7089 HU 80 978 1 21 62
1979248N16339 1979 84 NA NA GLORIA 1979-09-14 00:00:00 TS 37.0000 -41.5000 80 979 hurdat_atl main 1437 1433 O_____________ hurdat_atl AL141979 37.0000 -41.5000 HU 80 979 1 22 56
1979248N16339 1979 84 NA NA GLORIA 1979-09-14 03:00:00 TS 37.6966 -40.4541 main 1434 1427 P_____________ AL141979 37.6966 -40.4541 HU 77 979 1 22 47
1979248N16339 1979 84 NA NA GLORIA 1979-09-14 06:00:00 TS 38.5000 -39.5000 75 980 hurdat_atl main 1432 1423 O_____________ hurdat_atl AL141979 38.5000 -39.5000 HU 75 980 1 22 41
1979248N16339 1979 84 NA NA GLORIA 1979-09-14 09:00:00 TS 39.3259 -38.6466 main 1429 1420 P_____________ AL141979 39.3259 -38.6466 HU 75 982 1 21 38
1979248N16339 1979 84 NA NA GLORIA 1979-09-14 12:00:00 TS 40.2000 -37.8000 75 985 hurdat_atl main 1421 1421 O_____________ hurdat_atl AL141979 40.2000 -37.8000 HU 75 985 1 23 38
1979248N16339 1979 84 NA NA GLORIA 1979-09-14 15:00:00 TS 41.1225 -36.8079 main 1435 1429 P_____________ AL141979 41.1225 -36.8079 HU 72 986 1 23 40
1979248N16339 1979 84 NA NA GLORIA 1979-09-14 18:00:00 TS 42.0000 -35.8000 70 988 hurdat_atl main 1452 1452 O_____________ hurdat_atl AL141979 42.0000 -35.8000 HU 70 988 1 21 42
1979248N16339 1979 84 NA NA GLORIA 1979-09-14 21:00:00 TS 42.7135 -34.8949 main 1478 1478 P_____________ AL141979 42.7135 -34.8949 HU 67 990 1 19 43
1979248N16339 1979 84 NA NA GLORIA 1979-09-15 00:00:00 TS 43.4000 -34.0000 65 992 hurdat_atl main 1510 1510 O_____________ hurdat_atl AL141979 43.4000 -34.0000 HU 65 992 1 20 43
1979248N16339 1979 84 NA NA GLORIA 1979-09-15 03:00:00 TS 44.1723 -33.0327 main 1551 1551 P_____________ AL141979 44.1723 -33.0327 HU 62 993 0 21 42
1979248N16339 1979 84 NA NA GLORIA 1979-09-15 06:00:00 ET 45.0000 -32.0000 60 994 hurdat_atl main 1596 O_____________ hurdat_atl AL141979 45.0000 -32.0000 EX 60 994 -4 22 41

IBTrACS Databaseについて

本データベースは、米国NOAAが公開する1842年以降の世界の熱帯低気圧のベストトラックデータアーカイブInternational Best Track Archive for Climate Stewardship (IBTrACS)を、ウェブで閲覧しやすい形式に変換したものです。

最終更新日:2021-10-08